sensor_id;sensor_type;location;lat;lon;timestamp;P1;durP1;ratioP1;P2;durP2;ratioP2
11471;SDS011;47430;50.808;4.388;2022-12-18T00:00:03;31.00;;;14.53;;
11471;SDS011;47430;50.808;4.388;2022-12-18T00:02:30;34.60;;;15.57;;
11471;SDS011;47430;50.808;4.388;2022-12-18T00:04:56;36.30;;;15.53;;
11471;SDS011;47430;50.808;4.388;2022-12-18T00:07:22;35.47;;;14.57;;
11471;SDS011;47430;50.808;4.388;2022-12-18T00:09:48;35.77;;;15.10;;
11471;SDS011;47430;50.808;4.388;2022-12-18T00:12:14;28.97;;;14.97;;
11471;SDS011;47430;50.808;4.388;2022-12-18T00:14:40;81.50;;;36.77;;
11471;SDS011;47430;50.808;4.388;2022-12-18T00:17:07;72.60;;;30.33;;
11471;SDS011;47430;50.808;4.388;2022-12-18T00:19:33;34.47;;;16.47;;
11471;SDS011;47430;50.808;4.388;2022-12-18T00:21:59;33.20;;;15.07;;
11471;SDS011;47430;50.808;4.388;2022-12-18T00:24:25;33.33;;;17.00;;
11471;SDS011;47430;50.808;4.388;2022-12-18T00:26:51;33.37;;;15.97;;
11471;SDS011;47430;50.808;4.388;2022-12-18T00:29:17;30.87;;;14.50;;
11471;SDS011;47430;50.808;4.388;2022-12-18T00:31:43;32.10;;;16.00;;
11471;SDS011;47430;50.808;4.388;2022-12-18T00:34:11;33.87;;;16.47;;
11471;SDS011;47430;50.808;4.388;2022-12-18T00:36:37;32.13;;;16.30;;
11471;SDS011;47430;50.808;4.388;2022-12-18T00:39:04;31.13;;;14.00;;
11471;SDS011;47430;50.808;4.388;2022-12-18T00:41:31;26.67;;;13.97;;
11471;SDS011;47430;50.808;4.388;2022-12-18T00:44:16;27.10;;;14.10;;
11471;SDS011;47430;50.808;4.388;2022-12-18T00:46:43;35.47;;;15.20;;
11471;SDS011;47430;50.808;4.388;2022-12-18T00:49:10;65.47;;;28.83;;
11471;SDS011;47430;50.808;4.388;2022-12-18T00:51:36;47.40;;;22.30;;
11471;SDS011;47430;50.808;4.388;2022-12-18T00:54:02;30.90;;;14.57;;
11471;SDS011;47430;50.808;4.388;2022-12-18T00:56:28;26.13;;;12.93;;
11471;SDS011;47430;50.808;4.388;2022-12-18T00:58:54;31.50;;;14.20;;
11471;SDS011;47430;50.808;4.388;2022-12-18T01:01:21;24.13;;;12.90;;
11471;SDS011;47430;50.808;4.388;2022-12-18T01:03:47;23.77;;;12.87;;
11471;SDS011;47430;50.808;4.388;2022-12-18T01:06:14;23.87;;;12.03;;
11471;SDS011;47430;50.808;4.388;2022-12-18T01:08:41;26.90;;;12.80;;
11471;SDS011;47430;50.808;4.388;2022-12-18T01:11:17;20.30;;;11.30;;
11471;SDS011;47430;50.808;4.388;2022-12-18T01:13:43;22.87;;;10.93;;
11471;SDS011;47430;50.808;4.388;2022-12-18T01:16:13;18.57;;;10.93;;
11471;SDS011;47430;50.808;4.388;2022-12-18T01:18:39;20.30;;;11.27;;
11471;SDS011;47430;50.808;4.388;2022-12-18T01:21:06;18.97;;;10.33;;
11471;SDS011;47430;50.808;4.388;2022-12-18T01:23:32;20.17;;;10.43;;
11471;SDS011;47430;50.808;4.388;2022-12-18T01:25:58;22.50;;;11.00;;
11471;SDS011;47430;50.808;4.388;2022-12-18T01:28:29;17.77;;;10.47;;
11471;SDS011;47430;50.808;4.388;2022-12-18T01:30:55;22.53;;;10.83;;
11471;SDS011;47430;50.808;4.388;2022-12-18T01:33:21;19.30;;;10.13;;
11471;SDS011;47430;50.808;4.388;2022-12-18T01:35:47;18.93;;;9.93;;
11471;SDS011;47430;50.808;4.388;2022-12-18T01:38:13;21.53;;;9.80;;
11471;SDS011;47430;50.808;4.388;2022-12-18T01:40:39;20.03;;;10.03;;
11471;SDS011;47430;50.808;4.388;2022-12-18T01:43:05;19.13;;;10.23;;
11471;SDS011;47430;50.808;4.388;2022-12-18T01:45:31;25.43;;;11.10;;
11471;SDS011;47430;50.808;4.388;2022-12-18T01:47:59;32.40;;;10.60;;
11471;SDS011;47430;50.808;4.388;2022-12-18T01:50:42;19.37;;;10.17;;
11471;SDS011;47430;50.808;4.388;2022-12-18T01:55:38;23.73;;;10.57;;
11471;SDS011;47430;50.808;4.388;2022-12-18T01:58:05;21.73;;;9.90;;
11471;SDS011;47430;50.808;4.388;2022-12-18T02:00:31;19.57;;;9.77;;
11471;SDS011;47430;50.808;4.388;2022-12-18T02:02:58;19.13;;;9.60;;
11471;SDS011;47430;50.808;4.388;2022-12-18T02:05:29;18.53;;;9.53;;
11471;SDS011;47430;50.808;4.388;2022-12-18T02:10:31;22.83;;;10.03;;
11471;SDS011;47430;50.808;4.388;2022-12-18T02:13:06;21.50;;;9.80;;
11471;SDS011;47430;50.808;4.388;2022-12-18T02:18:06;20.90;;;10.70;;
11471;SDS011;47430;50.808;4.388;2022-12-18T02:23:10;18.90;;;9.60;;
11471;SDS011;47430;50.808;4.388;2022-12-18T02:28:43;19.17;;;10.43;;
11471;SDS011;47430;50.808;4.388;2022-12-18T02:31:11;17.53;;;9.93;;
11471;SDS011;47430;50.808;4.388;2022-12-18T02:33:39;21.40;;;10.17;;
11471;SDS011;47430;50.808;4.388;2022-12-18T02:36:06;18.03;;;9.23;;
11471;SDS011;47430;50.808;4.388;2022-12-18T02:38:32;20.70;;;9.80;;
11471;SDS011;47430;50.808;4.388;2022-12-18T02:41:00;19.20;;;9.53;;
11471;SDS011;47430;50.808;4.388;2022-12-18T02:43:27;18.97;;;9.53;;
11471;SDS011;47430;50.808;4.388;2022-12-18T02:45:56;20.93;;;10.67;;
11471;SDS011;47430;50.808;4.388;2022-12-18T02:48:27;19.47;;;10.97;;
11471;SDS011;47430;50.808;4.388;2022-12-18T02:56:29;21.60;;;10.43;;
11471;SDS011;47430;50.808;4.388;2022-12-18T02:59:07;23.37;;;10.27;;
11471;SDS011;47430;50.808;4.388;2022-12-18T03:01:39;16.77;;;8.67;;
11471;SDS011;47430;50.808;4.388;2022-12-18T03:04:27;19.17;;;10.10;;
11471;SDS011;47430;50.808;4.388;2022-12-18T03:06:55;19.37;;;10.17;;
11471;SDS011;47430;50.808;4.388;2022-12-18T03:09:33;20.33;;;10.17;;
11471;SDS011;47430;50.808;4.388;2022-12-18T03:12:04;23.90;;;11.10;;
11471;SDS011;47430;50.808;4.388;2022-12-18T03:14:52;23.83;;;9.93;;
11471;SDS011;47430;50.808;4.388;2022-12-18T03:17:20;22.53;;;10.70;;
11471;SDS011;47430;50.808;4.388;2022-12-18T03:19:48;18.00;;;9.60;;
11471;SDS011;47430;50.808;4.388;2022-12-18T03:22:15;23.53;;;9.70;;
11471;SDS011;47430;50.808;4.388;2022-12-18T03:24:41;20.30;;;9.60;;
11471;SDS011;47430;50.808;4.388;2022-12-18T03:27:11;17.50;;;9.97;;
11471;SDS011;47430;50.808;4.388;2022-12-18T03:29:43;19.00;;;9.10;;
11471;SDS011;47430;50.808;4.388;2022-12-18T03:32:31;19.27;;;9.37;;
11471;SDS011;47430;50.808;4.388;2022-12-18T03:34:57;18.87;;;9.40;;
11471;SDS011;47430;50.808;4.388;2022-12-18T03:37:24;22.17;;;10.27;;
11471;SDS011;47430;50.808;4.388;2022-12-18T03:39:50;24.80;;;9.97;;
11471;SDS011;47430;50.808;4.388;2022-12-18T03:42:19;21.17;;;9.97;;
11471;SDS011;47430;50.808;4.388;2022-12-18T03:44:52;15.80;;;9.50;;
11471;SDS011;47430;50.808;4.388;2022-12-18T03:47:30;20.57;;;10.50;;
11471;SDS011;47430;50.808;4.388;2022-12-18T03:54:59;15.67;;;8.17;;
11471;SDS011;47430;50.808;4.388;2022-12-18T03:57:26;17.27;;;9.20;;
11471;SDS011;47430;50.808;4.388;2022-12-18T03:59:57;18.20;;;9.00;;
11471;SDS011;47430;50.808;4.388;2022-12-18T04:02:24;18.00;;;9.53;;
11471;SDS011;47430;50.808;4.388;2022-12-18T04:04:52;17.73;;;8.50;;
11471;SDS011;47430;50.808;4.388;2022-12-18T04:07:20;18.20;;;9.60;;
11471;SDS011;47430;50.808;4.388;2022-12-18T04:09:46;16.10;;;8.43;;
11471;SDS011;47430;50.808;4.388;2022-12-18T04:12:13;16.07;;;8.67;;
11471;SDS011;47430;50.808;4.388;2022-12-18T04:14:40;18.17;;;9.20;;
11471;SDS011;47430;50.808;4.388;2022-12-18T04:17:06;18.03;;;9.23;;
11471;SDS011;47430;50.808;4.388;2022-12-18T04:19:32;14.50;;;8.40;;
11471;SDS011;47430;50.808;4.388;2022-12-18T04:21:58;19.83;;;9.13;;
11471;SDS011;47430;50.808;4.388;2022-12-18T04:24:24;17.30;;;8.70;;
11471;SDS011;47430;50.808;4.388;2022-12-18T04:26:50;14.13;;;8.53;;
11471;SDS011;47430;50.808;4.388;2022-12-18T04:29:16;17.70;;;8.07;;
11471;SDS011;47430;50.808;4.388;2022-12-18T04:31:42;17.17;;;9.40;;
11471;SDS011;47430;50.808;4.388;2022-12-18T04:34:08;18.23;;;8.70;;
11471;SDS011;47430;50.808;4.388;2022-12-18T04:36:34;17.23;;;9.13;;
11471;SDS011;47430;50.808;4.388;2022-12-18T04:39:00;19.43;;;9.27;;
11471;SDS011;47430;50.808;4.388;2022-12-18T04:41:26;17.77;;;8.97;;
11471;SDS011;47430;50.808;4.388;2022-12-18T04:43:52;18.10;;;9.20;;
11471;SDS011;47430;50.808;4.388;2022-12-18T04:46:18;18.07;;;9.00;;
11471;SDS011;47430;50.808;4.388;2022-12-18T04:48:45;15.87;;;8.70;;
11471;SDS011;47430;50.808;4.388;2022-12-18T04:51:12;14.37;;;7.87;;
11471;SDS011;47430;50.808;4.388;2022-12-18T04:53:38;18.27;;;8.40;;
11471;SDS011;47430;50.808;4.388;2022-12-18T04:56:05;17.87;;;7.97;;
11471;SDS011;47430;50.808;4.388;2022-12-18T04:58:31;13.27;;;7.83;;
11471;SDS011;47430;50.808;4.388;2022-12-18T05:00:57;14.47;;;8.90;;
11471;SDS011;47430;50.808;4.388;2022-12-18T05:03:23;17.37;;;8.40;;
11471;SDS011;47430;50.808;4.388;2022-12-18T05:05:50;16.73;;;8.67;;
11471;SDS011;47430;50.808;4.388;2022-12-18T05:08:16;15.23;;;7.60;;
11471;SDS011;47430;50.808;4.388;2022-12-18T05:10:42;11.90;;;7.93;;
11471;SDS011;47430;50.808;4.388;2022-12-18T05:13:08;20.20;;;9.53;;
11471;SDS011;47430;50.808;4.388;2022-12-18T05:15:34;16.80;;;7.70;;
11471;SDS011;47430;50.808;4.388;2022-12-18T05:18:01;16.27;;;7.57;;
11471;SDS011;47430;50.808;4.388;2022-12-18T05:20:27;13.73;;;7.80;;
11471;SDS011;47430;50.808;4.388;2022-12-18T05:22:55;17.60;;;8.30;;
11471;SDS011;47430;50.808;4.388;2022-12-18T05:25:22;11.93;;;7.20;;
11471;SDS011;47430;50.808;4.388;2022-12-18T05:27:48;18.53;;;9.20;;
11471;SDS011;47430;50.808;4.388;2022-12-18T05:30:14;20.20;;;8.27;;
11471;SDS011;47430;50.808;4.388;2022-12-18T05:32:40;15.33;;;7.93;;
11471;SDS011;47430;50.808;4.388;2022-12-18T05:35:07;18.40;;;8.30;;
11471;SDS011;47430;50.808;4.388;2022-12-18T05:37:34;17.23;;;7.53;;
11471;SDS011;47430;50.808;4.388;2022-12-18T05:40:00;18.80;;;8.03;;
11471;SDS011;47430;50.808;4.388;2022-12-18T05:42:26;14.63;;;8.73;;
11471;SDS011;47430;50.808;4.388;2022-12-18T05:44:52;16.77;;;7.73;;
11471;SDS011;47430;50.808;4.388;2022-12-18T05:47:18;16.97;;;8.73;;
11471;SDS011;47430;50.808;4.388;2022-12-18T05:49:44;15.57;;;7.80;;
11471;SDS011;47430;50.808;4.388;2022-12-18T05:52:10;17.27;;;8.57;;
11471;SDS011;47430;50.808;4.388;2022-12-18T05:54:36;18.50;;;9.13;;
11471;SDS011;47430;50.808;4.388;2022-12-18T05:57:02;15.03;;;8.03;;
11471;SDS011;47430;50.808;4.388;2022-12-18T05:59:28;17.60;;;7.70;;
11471;SDS011;47430;50.808;4.388;2022-12-18T06:01:55;11.27;;;6.93;;
11471;SDS011;47430;50.808;4.388;2022-12-18T06:04:21;11.97;;;7.13;;
11471;SDS011;47430;50.808;4.388;2022-12-18T06:06:47;12.50;;;7.27;;
11471;SDS011;47430;50.808;4.388;2022-12-18T06:09:13;12.43;;;6.87;;
11471;SDS011;47430;50.808;4.388;2022-12-18T06:11:39;12.90;;;6.50;;
11471;SDS011;47430;50.808;4.388;2022-12-18T06:14:05;12.37;;;6.00;;
11471;SDS011;47430;50.808;4.388;2022-12-18T06:16:31;14.37;;;7.03;;
11471;SDS011;47430;50.808;4.388;2022-12-18T06:19:02;12.70;;;6.73;;
11471;SDS011;47430;50.808;4.388;2022-12-18T06:21:29;13.43;;;7.30;;
11471;SDS011;47430;50.808;4.388;2022-12-18T06:23:55;12.97;;;6.30;;
11471;SDS011;47430;50.808;4.388;2022-12-18T06:26:21;15.13;;;7.33;;
11471;SDS011;47430;50.808;4.388;2022-12-18T06:28:47;14.97;;;6.27;;
11471;SDS011;47430;50.808;4.388;2022-12-18T06:31:13;16.73;;;6.63;;
11471;SDS011;47430;50.808;4.388;2022-12-18T06:33:39;16.13;;;6.90;;
11471;SDS011;47430;50.808;4.388;2022-12-18T06:36:07;12.03;;;6.47;;
11471;SDS011;47430;50.808;4.388;2022-12-18T06:38:34;10.70;;;6.33;;
11471;SDS011;47430;50.808;4.388;2022-12-18T06:41:00;14.20;;;6.27;;
11471;SDS011;47430;50.808;4.388;2022-12-18T06:43:27;12.53;;;6.60;;
11471;SDS011;47430;50.808;4.388;2022-12-18T06:45:58;14.57;;;6.97;;
11471;SDS011;47430;50.808;4.388;2022-12-18T06:48:24;12.83;;;6.33;;
11471;SDS011;47430;50.808;4.388;2022-12-18T06:50:50;12.10;;;6.73;;
11471;SDS011;47430;50.808;4.388;2022-12-18T06:53:16;12.57;;;6.60;;
11471;SDS011;47430;50.808;4.388;2022-12-18T06:55:42;11.77;;;6.50;;
11471;SDS011;47430;50.808;4.388;2022-12-18T06:58:08;12.93;;;6.63;;
11471;SDS011;47430;50.808;4.388;2022-12-18T07:00:34;16.47;;;6.90;;
11471;SDS011;47430;50.808;4.388;2022-12-18T07:03:00;11.33;;;6.63;;
11471;SDS011;47430;50.808;4.388;2022-12-18T07:05:26;12.40;;;6.57;;
11471;SDS011;47430;50.808;4.388;2022-12-18T07:07:52;11.20;;;6.07;;
11471;SDS011;47430;50.808;4.388;2022-12-18T07:10:19;11.07;;;6.53;;
11471;SDS011;47430;50.808;4.388;2022-12-18T07:12:45;9.57;;;6.10;;
11471;SDS011;47430;50.808;4.388;2022-12-18T07:15:11;14.33;;;6.87;;
11471;SDS011;47430;50.808;4.388;2022-12-18T07:17:37;11.50;;;6.77;;
11471;SDS011;47430;50.808;4.388;2022-12-18T07:20:03;12.77;;;6.70;;
11471;SDS011;47430;50.808;4.388;2022-12-18T07:22:29;12.53;;;5.97;;
11471;SDS011;47430;50.808;4.388;2022-12-18T07:24:55;10.97;;;5.73;;
11471;SDS011;47430;50.808;4.388;2022-12-18T07:27:22;9.37;;;6.00;;
11471;SDS011;47430;50.808;4.388;2022-12-18T07:29:48;14.50;;;6.83;;
11471;SDS011;47430;50.808;4.388;2022-12-18T07:32:14;11.23;;;5.93;;
11471;SDS011;47430;50.808;4.388;2022-12-18T07:34:40;22.43;;;6.37;;
11471;SDS011;47430;50.808;4.388;2022-12-18T07:37:06;12.47;;;6.43;;
11471;SDS011;47430;50.808;4.388;2022-12-18T07:39:32;10.40;;;5.60;;
11471;SDS011;47430;50.808;4.388;2022-12-18T07:41:58;14.83;;;6.37;;
11471;SDS011;47430;50.808;4.388;2022-12-18T07:44:43;17.83;;;6.60;;
11471;SDS011;47430;50.808;4.388;2022-12-18T07:47:09;15.07;;;6.90;;
11471;SDS011;47430;50.808;4.388;2022-12-18T07:49:35;8.23;;;5.40;;
11471;SDS011;47430;50.808;4.388;2022-12-18T07:52:01;11.20;;;6.30;;
11471;SDS011;47430;50.808;4.388;2022-12-18T07:54:27;15.47;;;6.27;;
11471;SDS011;47430;50.808;4.388;2022-12-18T07:56:53;9.30;;;6.07;;
11471;SDS011;47430;50.808;4.388;2022-12-18T07:59:19;10.93;;;5.37;;
11471;SDS011;47430;50.808;4.388;2022-12-18T08:01:45;13.00;;;6.70;;
11471;SDS011;47430;50.808;4.388;2022-12-18T08:04:11;13.53;;;6.07;;
11471;SDS011;47430;50.808;4.388;2022-12-18T08:06:37;9.77;;;5.73;;
11471;SDS011;47430;50.808;4.388;2022-12-18T08:09:03;11.63;;;6.47;;
11471;SDS011;47430;50.808;4.388;2022-12-18T08:11:30;10.50;;;5.73;;
11471;SDS011;47430;50.808;4.388;2022-12-18T08:13:56;8.27;;;5.23;;
11471;SDS011;47430;50.808;4.388;2022-12-18T08:16:23;11.10;;;6.20;;
11471;SDS011;47430;50.808;4.388;2022-12-18T08:18:51;11.23;;;5.67;;
11471;SDS011;47430;50.808;4.388;2022-12-18T08:21:18;11.47;;;5.73;;
11471;SDS011;47430;50.808;4.388;2022-12-18T08:23:46;10.17;;;6.00;;
11471;SDS011;47430;50.808;4.388;2022-12-18T08:26:12;11.17;;;5.63;;
11471;SDS011;47430;50.808;4.388;2022-12-18T08:28:38;12.90;;;5.97;;
11471;SDS011;47430;50.808;4.388;2022-12-18T08:31:04;10.30;;;5.20;;
11471;SDS011;47430;50.808;4.388;2022-12-18T08:33:31;17.60;;;5.60;;
11471;SDS011;47430;50.808;4.388;2022-12-18T08:36:01;12.60;;;6.50;;
11471;SDS011;47430;50.808;4.388;2022-12-18T08:38:27;7.97;;;5.80;;
11471;SDS011;47430;50.808;4.388;2022-12-18T08:41:02;12.17;;;6.10;;
11471;SDS011;47430;50.808;4.388;2022-12-18T08:43:29;14.43;;;6.47;;
11471;SDS011;47430;50.808;4.388;2022-12-18T08:46:13;14.60;;;6.10;;
11471;SDS011;47430;50.808;4.388;2022-12-18T08:48:40;9.73;;;6.00;;
11471;SDS011;47430;50.808;4.388;2022-12-18T08:51:06;13.77;;;6.40;;
11471;SDS011;47430;50.808;4.388;2022-12-18T08:53:34;14.33;;;6.67;;
11471;SDS011;47430;50.808;4.388;2022-12-18T08:56:00;12.30;;;6.33;;
11471;SDS011;47430;50.808;4.388;2022-12-18T08:58:26;10.73;;;6.27;;
11471;SDS011;47430;50.808;4.388;2022-12-18T09:00:52;10.33;;;5.97;;
11471;SDS011;47430;50.808;4.388;2022-12-18T09:03:19;13.90;;;7.63;;
11471;SDS011;47430;50.808;4.388;2022-12-18T09:05:47;11.17;;;6.13;;
11471;SDS011;47430;50.808;4.388;2022-12-18T09:08:13;11.00;;;6.73;;
11471;SDS011;47430;50.808;4.388;2022-12-18T09:10:45;13.70;;;7.33;;
11471;SDS011;47430;50.808;4.388;2022-12-18T09:13:11;11.27;;;5.77;;
11471;SDS011;47430;50.808;4.388;2022-12-18T09:15:41;12.67;;;6.97;;
11471;SDS011;47430;50.808;4.388;2022-12-18T09:18:08;11.57;;;6.27;;
11471;SDS011;47430;50.808;4.388;2022-12-18T09:20:34;12.20;;;6.57;;
11471;SDS011;47430;50.808;4.388;2022-12-18T09:23:00;13.10;;;5.93;;
11471;SDS011;47430;50.808;4.388;2022-12-18T09:25:26;12.60;;;6.30;;
11471;SDS011;47430;50.808;4.388;2022-12-18T09:27:56;14.07;;;7.00;;
11471;SDS011;47430;50.808;4.388;2022-12-18T09:30:22;13.93;;;7.60;;
11471;SDS011;47430;50.808;4.388;2022-12-18T09:32:48;21.33;;;7.77;;
11471;SDS011;47430;50.808;4.388;2022-12-18T09:35:15;14.80;;;7.80;;
11471;SDS011;47430;50.808;4.388;2022-12-18T09:37:41;14.40;;;7.03;;
11471;SDS011;47430;50.808;4.388;2022-12-18T09:40:13;11.87;;;7.40;;
11471;SDS011;47430;50.808;4.388;2022-12-18T09:42:39;10.33;;;6.67;;
11471;SDS011;47430;50.808;4.388;2022-12-18T09:45:07;14.77;;;8.17;;
11471;SDS011;47430;50.808;4.388;2022-12-18T09:47:39;16.27;;;7.93;;
11471;SDS011;47430;50.808;4.388;2022-12-18T09:50:16;18.43;;;8.17;;
11471;SDS011;47430;50.808;4.388;2022-12-18T09:52:48;14.03;;;7.33;;
11471;SDS011;47430;50.808;4.388;2022-12-18T09:57:49;15.67;;;8.13;;
11471;SDS011;47430;50.808;4.388;2022-12-18T10:02:43;15.73;;;7.67;;
11471;SDS011;47430;50.808;4.388;2022-12-18T10:05:14;16.87;;;8.07;;
11471;SDS011;47430;50.808;4.388;2022-12-18T10:10:30;15.20;;;8.07;;
11471;SDS011;47430;50.808;4.388;2022-12-18T10:13:00;13.93;;;8.03;;
11471;SDS011;47430;50.808;4.388;2022-12-18T10:15:36;20.97;;;7.67;;
11471;SDS011;47430;50.808;4.388;2022-12-18T10:25:53;19.10;;;8.50;;
11471;SDS011;47430;50.808;4.388;2022-12-18T10:28:21;16.57;;;7.90;;
11471;SDS011;47430;50.808;4.388;2022-12-18T10:30:47;14.27;;;7.87;;
11471;SDS011;47430;50.808;4.388;2022-12-18T10:33:13;15.63;;;8.03;;
11471;SDS011;47430;50.808;4.388;2022-12-18T10:35:41;16.00;;;7.87;;
11471;SDS011;47430;50.808;4.388;2022-12-18T10:43:38;17.97;;;9.33;;
11471;SDS011;47430;50.808;4.388;2022-12-18T10:51:01;17.70;;;8.30;;
11471;SDS011;47430;50.808;4.388;2022-12-18T10:53:31;17.43;;;8.43;;
11471;SDS011;47430;50.808;4.388;2022-12-18T10:55:58;17.43;;;9.87;;
11471;SDS011;47430;50.808;4.388;2022-12-18T10:58:29;17.83;;;9.07;;
11471;SDS011;47430;50.808;4.388;2022-12-18T11:01:20;15.70;;;8.53;;
11471;SDS011;47430;50.808;4.388;2022-12-18T11:06:13;16.10;;;8.77;;
11471;SDS011;47430;50.808;4.388;2022-12-18T11:08:39;21.83;;;9.90;;
11471;SDS011;47430;50.808;4.388;2022-12-18T11:11:28;18.33;;;9.23;;
11471;SDS011;47430;50.808;4.388;2022-12-18T11:14:03;15.23;;;8.17;;
11471;SDS011;47430;50.808;4.388;2022-12-18T11:16:31;15.93;;;8.30;;
11471;SDS011;47430;50.808;4.388;2022-12-18T11:21:43;18.13;;;8.57;;
11471;SDS011;47430;50.808;4.388;2022-12-18T11:24:20;16.50;;;8.30;;
11471;SDS011;47430;50.808;4.388;2022-12-18T11:26:49;19.80;;;8.80;;
11471;SDS011;47430;50.808;4.388;2022-12-18T11:29:16;18.23;;;9.80;;
11471;SDS011;47430;50.808;4.388;2022-12-18T11:31:43;16.43;;;8.67;;
11471;SDS011;47430;50.808;4.388;2022-12-18T11:34:14;22.17;;;11.10;;
11471;SDS011;47430;50.808;4.388;2022-12-18T11:36:44;18.57;;;8.60;;
11471;SDS011;47430;50.808;4.388;2022-12-18T11:41:55;15.63;;;8.20;;
11471;SDS011;47430;50.808;4.388;2022-12-18T11:50:26;22.97;;;8.40;;
11471;SDS011;47430;50.808;4.388;2022-12-18T11:52:54;19.13;;;8.67;;
11471;SDS011;47430;50.808;4.388;2022-12-18T11:58:09;19.27;;;9.63;;
11471;SDS011;47430;50.808;4.388;2022-12-18T12:00:40;22.37;;;10.23;;
11471;SDS011;47430;50.808;4.388;2022-12-18T12:05:45;22.67;;;11.10;;
11471;SDS011;47430;50.808;4.388;2022-12-18T12:08:39;26.63;;;10.33;;
11471;SDS011;47430;50.808;4.388;2022-12-18T12:11:10;18.67;;;9.13;;
11471;SDS011;47430;50.808;4.388;2022-12-18T12:22:12;19.13;;;8.23;;
11471;SDS011;47430;50.808;4.388;2022-12-18T12:24:44;19.93;;;9.67;;
11471;SDS011;47430;50.808;4.388;2022-12-18T12:37:26;16.83;;;8.80;;
11471;SDS011;47430;50.808;4.388;2022-12-18T12:39:52;18.87;;;8.53;;
11471;SDS011;47430;50.808;4.388;2022-12-18T12:42:20;13.93;;;9.73;;
11471;SDS011;47430;50.808;4.388;2022-12-18T12:45:06;20.47;;;9.13;;
11471;SDS011;47430;50.808;4.388;2022-12-18T12:47:39;20.30;;;10.37;;
11471;SDS011;47430;50.808;4.388;2022-12-18T12:50:12;20.30;;;10.43;;
11471;SDS011;47430;50.808;4.388;2022-12-18T12:52:42;19.87;;;9.70;;
11471;SDS011;47430;50.808;4.388;2022-12-18T12:55:16;24.87;;;10.10;;
11471;SDS011;47430;50.808;4.388;2022-12-18T12:57:45;20.67;;;9.30;;
11471;SDS011;47430;50.808;4.388;2022-12-18T13:00:16;22.83;;;10.10;;
11471;SDS011;47430;50.808;4.388;2022-12-18T13:02:47;20.87;;;10.47;;
11471;SDS011;47430;50.808;4.388;2022-12-18T13:05:28;22.23;;;10.23;;
11471;SDS011;47430;50.808;4.388;2022-12-18T13:08:00;21.40;;;10.63;;
11471;SDS011;47430;50.808;4.388;2022-12-18T13:10:32;19.27;;;9.47;;
11471;SDS011;47430;50.808;4.388;2022-12-18T13:13:04;23.43;;;10.67;;
11471;SDS011;47430;50.808;4.388;2022-12-18T13:18:05;25.73;;;12.43;;
11471;SDS011;47430;50.808;4.388;2022-12-18T13:20:42;22.63;;;11.10;;
11471;SDS011;47430;50.808;4.388;2022-12-18T13:25:57;20.73;;;10.43;;
11471;SDS011;47430;50.808;4.388;2022-12-18T13:31:00;23.93;;;11.30;;
11471;SDS011;47430;50.808;4.388;2022-12-18T13:38:23;23.63;;;11.30;;
11471;SDS011;47430;50.808;4.388;2022-12-18T13:43:27;21.83;;;11.70;;
11471;SDS011;47430;50.808;4.388;2022-12-18T13:46:00;24.87;;;11.47;;
11471;SDS011;47430;50.808;4.388;2022-12-18T13:48:27;22.90;;;11.07;;
11471;SDS011;47430;50.808;4.388;2022-12-18T13:51:05;29.10;;;11.27;;
11471;SDS011;47430;50.808;4.388;2022-12-18T13:53:34;23.60;;;11.33;;
11471;SDS011;47430;50.808;4.388;2022-12-18T13:56:01;24.43;;;12.93;;
11471;SDS011;47430;50.808;4.388;2022-12-18T13:58:28;25.13;;;12.00;;
11471;SDS011;47430;50.808;4.388;2022-12-18T14:00:54;28.27;;;13.47;;
11471;SDS011;47430;50.808;4.388;2022-12-18T14:03:24;24.53;;;11.83;;
11471;SDS011;47430;50.808;4.388;2022-12-18T14:06:10;24.87;;;11.87;;
11471;SDS011;47430;50.808;4.388;2022-12-18T14:08:41;21.37;;;10.47;;
11471;SDS011;47430;50.808;4.388;2022-12-18T14:11:07;23.87;;;12.20;;
11471;SDS011;47430;50.808;4.388;2022-12-18T14:13:43;23.97;;;12.00;;
11471;SDS011;47430;50.808;4.388;2022-12-18T14:16:11;28.47;;;12.83;;
11471;SDS011;47430;50.808;4.388;2022-12-18T14:21:28;24.50;;;13.30;;
11471;SDS011;47430;50.808;4.388;2022-12-18T14:26:32;30.63;;;13.83;;
11471;SDS011;47430;50.808;4.388;2022-12-18T14:28:59;26.70;;;12.73;;
11471;SDS011;47430;50.808;4.388;2022-12-18T14:31:30;25.57;;;12.63;;
11471;SDS011;47430;50.808;4.388;2022-12-18T14:33:56;34.20;;;12.77;;
11471;SDS011;47430;50.808;4.388;2022-12-18T14:36:24;30.33;;;13.13;;
11471;SDS011;47430;50.808;4.388;2022-12-18T14:38:51;29.13;;;13.67;;
11471;SDS011;47430;50.808;4.388;2022-12-18T14:41:19;27.00;;;13.17;;
11471;SDS011;47430;50.808;4.388;2022-12-18T14:43:47;29.53;;;14.17;;
11471;SDS011;47430;50.808;4.388;2022-12-18T14:48:58;33.23;;;14.47;;
11471;SDS011;47430;50.808;4.388;2022-12-18T14:51:25;28.63;;;12.83;;
11471;SDS011;47430;50.808;4.388;2022-12-18T14:53:56;39.97;;;15.07;;
11471;SDS011;47430;50.808;4.388;2022-12-18T14:58:49;30.00;;;14.33;;
11471;SDS011;47430;50.808;4.388;2022-12-18T15:01:20;31.27;;;13.23;;
11471;SDS011;47430;50.808;4.388;2022-12-18T15:03:47;29.43;;;14.40;;
11471;SDS011;47430;50.808;4.388;2022-12-18T15:06:55;29.47;;;13.43;;
11471;SDS011;47430;50.808;4.388;2022-12-18T15:09:22;27.90;;;13.57;;
11471;SDS011;47430;50.808;4.388;2022-12-18T15:11:48;27.53;;;13.00;;
11471;SDS011;47430;50.808;4.388;2022-12-18T15:14:21;29.43;;;13.77;;
11471;SDS011;47430;50.808;4.388;2022-12-18T15:16:54;37.80;;;14.57;;
11471;SDS011;47430;50.808;4.388;2022-12-18T15:19:21;30.07;;;13.70;;
11471;SDS011;47430;50.808;4.388;2022-12-18T15:21:47;32.43;;;13.33;;
11471;SDS011;47430;50.808;4.388;2022-12-18T15:24:16;35.67;;;14.73;;
11471;SDS011;47430;50.808;4.388;2022-12-18T15:26:43;28.53;;;14.77;;
11471;SDS011;47430;50.808;4.388;2022-12-18T15:29:19;29.20;;;13.47;;
11471;SDS011;47430;50.808;4.388;2022-12-18T15:31:57;30.43;;;13.83;;
11471;SDS011;47430;50.808;4.388;2022-12-18T15:34:23;27.80;;;12.33;;
11471;SDS011;47430;50.808;4.388;2022-12-18T15:36:51;29.33;;;12.80;;
11471;SDS011;47430;50.808;4.388;2022-12-18T15:39:17;27.87;;;13.57;;
11471;SDS011;47430;50.808;4.388;2022-12-18T15:41:43;25.57;;;12.43;;
11471;SDS011;47430;50.808;4.388;2022-12-18T15:44:29;34.63;;;13.07;;
11471;SDS011;47430;50.808;4.388;2022-12-18T15:46:56;28.90;;;12.33;;
11471;SDS011;47430;50.808;4.388;2022-12-18T15:49:22;29.53;;;12.73;;
11471;SDS011;47430;50.808;4.388;2022-12-18T15:51:58;27.60;;;12.73;;
11471;SDS011;47430;50.808;4.388;2022-12-18T15:54:24;28.27;;;12.30;;
11471;SDS011;47430;50.808;4.388;2022-12-18T15:57:10;27.90;;;13.23;;
11471;SDS011;47430;50.808;4.388;2022-12-18T15:59:49;28.93;;;12.23;;
11471;SDS011;47430;50.808;4.388;2022-12-18T16:02:18;30.67;;;13.40;;
11471;SDS011;47430;50.808;4.388;2022-12-18T16:04:44;23.63;;;11.80;;
11471;SDS011;47430;50.808;4.388;2022-12-18T16:07:11;25.47;;;11.30;;
11471;SDS011;47430;50.808;4.388;2022-12-18T16:09:37;29.57;;;13.53;;
11471;SDS011;47430;50.808;4.388;2022-12-18T16:12:04;21.47;;;11.43;;
11471;SDS011;47430;50.808;4.388;2022-12-18T16:14:30;24.37;;;11.83;;
11471;SDS011;47430;50.808;4.388;2022-12-18T16:16:57;27.47;;;12.77;;
11471;SDS011;47430;50.808;4.388;2022-12-18T16:19:24;35.97;;;13.43;;
11471;SDS011;47430;50.808;4.388;2022-12-18T16:21:51;27.13;;;12.37;;
11471;SDS011;47430;50.808;4.388;2022-12-18T16:24:19;28.53;;;12.93;;
11471;SDS011;47430;50.808;4.388;2022-12-18T16:26:49;26.97;;;12.50;;
11471;SDS011;47430;50.808;4.388;2022-12-18T16:29:16;27.40;;;12.43;;